T Luke Savage — WDG2137 — position and weather

sailwx.info

Track history (hours):
 
Tides and Currents Weather Stations Pressure Air Temp Water Temp Dewpoint Dewpoint Depression Visibility Wind Speed Wind Dir Waves Ship Positions

T Luke Savage

Owner: Savage Inland Marine, Gibson, LA. More information available from US FCC via Universal Licensing System and Coast Guard Vessel Documentation Center.

Last reported at 2017-Nov-25 01:59 UTC. Time now 2017-Nov-25 02:14 UTC.
Position N 29°45' W 095°06'.

Length 29 m.

Type: Towing. MMSI: 367512520.

Date/timePositionNaut miles runAvg speedWind from/ knotsBaromVisibWave heightAir tempDewpointWater temp
2017-Nov-25 01:59N 29°45' W 095°06'2 3.2
2017-Nov-25 01:31N 29°47' W 095°05'0 0.1
2017-Nov-25 00:53N 29°46' W 095°05'0 0.1
2017-Nov-24 23:14N 29°46' W 095°05'2 8.2
2017-Nov-24 23:01N 29°45' W 095°04'4 8.1
2017-Nov-24 22:30N 29°42' W 095°00'4 8.8
2017-Nov-24 22:00N 29°38' W 094°58'5 9.1
2017-Nov-24 21:31N 29°34' W 094°55'4 8.9
2017-Nov-24 21:00N 29°30' W 094°53'13 2.1
2017-Nov-24 14:59N 29°19' W 094°48'0 0.0
2017-Nov-24 14:29N 29°19' W 094°48'14 1.3
2017-Nov-24 03:39N 29°32' W 094°54'1 7.5
2017-Nov-24 03:30N 29°33' W 094°54'4 8.1
2017-Nov-24 03:00N 29°36' W 094°57'4 7.7
2017-Nov-24 02:30N 29°40' W 094°58'4 7.6
2017-Nov-24 02:00N 29°43' W 095°01'2 0.5
2017-Nov-23 21:42N 29°44' W 095°03'0 0.0
2017-Nov-23 21:11N 29°44' W 095°03'0 0.0
2017-Nov-23 20:49N 29°44' W 095°03'0 0.0
2017-Nov-23 19:11N 29°44' W 095°03'0 0.0
2017-Nov-23 18:45N 29°44' W 095°03'0 0.0
2017-Nov-23 17:27N 29°44' W 095°03'0 0.0
2017-Nov-23 16:16N 29°44' W 095°03'0 0.0
2017-Nov-23 14:59N 29°44' W 095°03'0 0.0
2017-Nov-23 13:31N 29°44' W 095°03'0 0.0
2017-Nov-23 13:23N 29°44' W 095°03'0 0.0
2017-Nov-23 12:28N 29°44' W 095°03'0 0.1
2017-Nov-23 12:00N 29°44' W 095°03'0 0.2
2017-Nov-23 11:30N 29°44' W 095°03'0 0.2
2017-Nov-23 11:00N 29°44' W 095°03'3 5.0
2017-Nov-23 10:30N 29°42' W 095°01'3 5.8
2017-Nov-23 10:00N 29°40' W 094°59'3 6.7
2017-Nov-23 09:30N 29°37' W 094°57'3 6.7
2017-Nov-23 09:00N 29°34' W 094°55'4 7.0
2017-Nov-23 08:30N 29°31' W 094°53'1 0.1
2017-Nov-23 00:35N 29°32' W 094°54'1 6.6
2017-Nov-23 00:30N 29°32' W 094°54'4 7.2
2017-Nov-23 00:00N 29°35' W 094°56'4 7.6
2017-Nov-22 23:30N 29°39' W 094°58'4 7.7
2017-Nov-22 23:00N 29°42' W 095°00'  
2017-Nov-20 00:01N 29°46' W 095°06'0 0.1
2017-Nov-19 23:55N 29°46' W 095°06'1 0.1
2017-Nov-19 18:37N 29°45' W 095°06'1 6.1
2017-Nov-19 18:27N 29°46' W 095°05'3 7.0
2017-Nov-19 18:00N 29°44' W 095°02'3 6.8
2017-Nov-19 17:30N 29°41' W 094°59'3 6.8
2017-Nov-19 17:00N 29°38' W 094°58'4 7.9
2017-Nov-19 16:30N 29°35' W 094°56'4 8.0
2017-Nov-19 16:00N 29°31' W 094°53'73 2.2
2017-Nov-18 07:02N 30°04' W 093°38'0 7.6
2017-Nov-18 06:58N 30°04' W 093°37'4 7.5
2017-Nov-18 06:29N 30°04' W 093°33'4 7.7
2017-Nov-18 06:00N 30°04' W 093°29'4 7.6
2017-Nov-18 05:30N 30°04' W 093°24'3 6.6
2017-Nov-18 05:00N 30°04' W 093°20'2 4.8
2017-Nov-18 04:30N 30°06' W 093°18'1 2.4
2017-Nov-18 04:00N 30°05' W 093°17'1 1.1
2017-Nov-18 03:30N 30°05' W 093°17'1 1.7
2017-Nov-18 03:00N 30°04' W 093°16'0 0.0
2017-Nov-18 02:30N 30°04' W 093°16'0 0.0
2017-Nov-18 02:00N 30°04' W 093°16'0 0.0
2017-Nov-18 01:30N 30°04' W 093°16'0 0.0
2017-Nov-18 01:00N 30°04' W 093°16'0 0.0
2017-Nov-18 00:30N 30°04' W 093°16'0 0.0
2017-Nov-18 00:00N 30°04' W 093°16'0 0.0
2017-Nov-17 23:30N 30°04' W 093°16'0 0.0
2017-Nov-17 23:00N 30°04' W 093°16'0 0.0
2017-Nov-17 22:30N 30°04' W 093°16'0 0.0
2017-Nov-17 22:00N 30°04' W 093°16'0 0.0
2017-Nov-17 21:30N 30°04' W 093°16'0 0.0
2017-Nov-17 21:00N 30°04' W 093°16'0 0.1
2017-Nov-17 20:30N 30°04' W 093°16'0 0.1
2017-Nov-17 20:00N 30°04' W 093°16'0 0.1
2017-Nov-17 19:30N 30°04' W 093°16'3 6.0
2017-Nov-17 19:00N 30°01' W 093°14'4 7.2
2017-Nov-17 18:30N 29°58' W 093°12'3 7.0
2017-Nov-17 18:00N 29°56' W 093°09'34 6.9
2017-Nov-17 13:07N 29°54' W 092°30'1 7.2
2017-Nov-17 13:00N 29°54' W 092°29'7 6.7
2017-Nov-17 11:59N 29°51' W 092°22'3 6.9
2017-Nov-17 11:30N 29°50' W 092°18'1 1.7
2017-Nov-17 11:00N 29°49' W 092°17'0 0.1
2017-Nov-17 10:30N 29°49' W 092°17'2 3.6
2017-Nov-17 10:00N 29°48' W 092°16'3 6.4
2017-Nov-17 09:30N 29°47' W 092°12'2 4.9
2017-Nov-17 09:00N 29°47' W 092°10'4 7.5
2017-Nov-17 08:30N 29°48' W 092°05'4 7.5
2017-Nov-17 08:00N 29°49' W 092°01'4 7.5
2017-Nov-17 07:30N 29°50' W 091°57'8 3.2
2017-Nov-17 04:59N 29°47' W 091°49'48 6.3
2017-Nov-16 21:23N 29°34' W 090°56'4 7.5
2017-Nov-16 20:53N 29°32' W 090°52'3 8.1
2017-Nov-16 20:30N 29°32' W 090°49'3 6.7
2017-Nov-16 20:00N 29°34' W 090°45'3 5.1
2017-Nov-16 19:30N 29°35' W 090°43'2 3.8
2017-Nov-16 19:00N 29°36' W 090°41'3 6.9
2017-Nov-16 18:30N 29°35' W 090°37'3 6.3
2017-Nov-16 18:00N 29°34' W 090°34'4 7.7
2017-Nov-16 17:30N 29°34' W 090°29'  
Track history (hours):
 
Tides and Currents Weather Stations Pressure Air Temp Water Temp Dewpoint Dewpoint Depression Visibility Wind Speed Wind Dir Waves Ship Positions

T Luke Savage

Owner: Savage Inland Marine, Gibson, LA. More information available from US FCC via Universal Licensing System and Coast Guard Vessel Documentation Center.

Last reported at 2017-Nov-25 01:59 UTC. Time now 2017-Nov-25 02:14 UTC.
Position N 29°45' W 095°06'.

Length 29 m.

Type: Towing. MMSI: 367512520.

Date/timePositionNaut miles runAvg speedWind from/ knotsBaromVisibWave heightAir tempDewpointWater temp
2017-Nov-25 01:59N 29°45' W 095°06'2 3.2
2017-Nov-25 01:31N 29°47' W 095°05'0 0.1
2017-Nov-25 00:53N 29°46' W 095°05'0 0.1
2017-Nov-24 23:14N 29°46' W 095°05'2 8.2
2017-Nov-24 23:01N 29°45' W 095°04'4 8.1
2017-Nov-24 22:30N 29°42' W 095°00'4 8.8
2017-Nov-24 22:00N 29°38' W 094°58'5 9.1
2017-Nov-24 21:31N 29°34' W 094°55'4 8.9
2017-Nov-24 21:00N 29°30' W 094°53'13 2.1
2017-Nov-24 14:59N 29°19' W 094°48'0 0.0
2017-Nov-24 14:29N 29°19' W 094°48'14 1.3
2017-Nov-24 03:39N 29°32' W 094°54'1 7.5
2017-Nov-24 03:30N 29°33' W 094°54'4 8.1
2017-Nov-24 03:00N 29°36' W 094°57'4 7.7
2017-Nov-24 02:30N 29°40' W 094°58'4 7.6
2017-Nov-24 02:00N 29°43' W 095°01'2 0.5
2017-Nov-23 21:42N 29°44' W 095°03'0 0.0
2017-Nov-23 21:11N 29°44' W 095°03'0 0.0
2017-Nov-23 20:49N 29°44' W 095°03'0 0.0
2017-Nov-23 19:11N 29°44' W 095°03'0 0.0
2017-Nov-23 18:45N 29°44' W 095°03'0 0.0
2017-Nov-23 17:27N 29°44' W 095°03'0 0.0
2017-Nov-23 16:16N 29°44' W 095°03'0 0.0
2017-Nov-23 14:59N 29°44' W 095°03'0 0.0
2017-Nov-23 13:31N 29°44' W 095°03'0 0.0
2017-Nov-23 13:23N 29°44' W 095°03'0 0.0
2017-Nov-23 12:28N 29°44' W 095°03'0 0.1
2017-Nov-23 12:00N 29°44' W 095°03'0 0.2
2017-Nov-23 11:30N 29°44' W 095°03'0 0.2
2017-Nov-23 11:00N 29°44' W 095°03'3 5.0
2017-Nov-23 10:30N 29°42' W 095°01'3 5.8
2017-Nov-23 10:00N 29°40' W 094°59'3 6.7
2017-Nov-23 09:30N 29°37' W 094°57'3 6.7
2017-Nov-23 09:00N 29°34' W 094°55'4 7.0
2017-Nov-23 08:30N 29°31' W 094°53'1 0.1
2017-Nov-23 00:35N 29°32' W 094°54'1 6.6
2017-Nov-23 00:30N 29°32' W 094°54'4 7.2
2017-Nov-23 00:00N 29°35' W 094°56'4 7.6
2017-Nov-22 23:30N 29°39' W 094°58'4 7.7
2017-Nov-22 23:00N 29°42' W 095°00'  
2017-Nov-20 00:01N 29°46' W 095°06'0 0.1
2017-Nov-19 23:55N 29°46' W 095°06'1 0.1
2017-Nov-19 18:37N 29°45' W 095°06'1 6.1
2017-Nov-19 18:27N 29°46' W 095°05'3 7.0
2017-Nov-19 18:00N 29°44' W 095°02'3 6.8
2017-Nov-19 17:30N 29°41' W 094°59'3 6.8
2017-Nov-19 17:00N 29°38' W 094°58'4 7.9
2017-Nov-19 16:30N 29°35' W 094°56'4 8.0
2017-Nov-19 16:00N 29°31' W 094°53'73 2.2
2017-Nov-18 07:02N 30°04' W 093°38'0 7.6
2017-Nov-18 06:58N 30°04' W 093°37'4 7.5
2017-Nov-18 06:29N 30°04' W 093°33'4 7.7
2017-Nov-18 06:00N 30°04' W 093°29'4 7.6
2017-Nov-18 05:30N 30°04' W 093°24'3 6.6
2017-Nov-18 05:00N 30°04' W 093°20'2 4.8
2017-Nov-18 04:30N 30°06' W 093°18'1 2.4
2017-Nov-18 04:00N 30°05' W 093°17'1 1.1
2017-Nov-18 03:30N 30°05' W 093°17'1 1.7
2017-Nov-18 03:00N 30°04' W 093°16'0 0.0
2017-Nov-18 02:30N 30°04' W 093°16'0 0.0
2017-Nov-18 02:00N 30°04' W 093°16'0 0.0
2017-Nov-18 01:30N 30°04' W 093°16'0 0.0
2017-Nov-18 01:00N 30°04' W 093°16'0 0.0
2017-Nov-18 00:30N 30°04' W 093°16'0 0.0
2017-Nov-18 00:00N 30°04' W 093°16'0 0.0
2017-Nov-17 23:30N 30°04' W 093°16'0 0.0
2017-Nov-17 23:00N 30°04' W 093°16'0 0.0
2017-Nov-17 22:30N 30°04' W 093°16'0 0.0
2017-Nov-17 22:00N 30°04' W 093°16'0 0.0
2017-Nov-17 21:30N 30°04' W 093°16'0 0.0
2017-Nov-17 21:00N 30°04' W 093°16'0 0.1
2017-Nov-17 20:30N 30°04' W 093°16'0 0.1
2017-Nov-17 20:00N 30°04' W 093°16'0 0.1
2017-Nov-17 19:30N 30°04' W 093°16'3 6.0
2017-Nov-17 19:00N 30°01' W 093°14'4 7.2
2017-Nov-17 18:30N 29°58' W 093°12'3 7.0
2017-Nov-17 18:00N 29°56' W 093°09'34 6.9
2017-Nov-17 13:07N 29°54' W 092°30'1 7.2
2017-Nov-17 13:00N 29°54' W 092°29'7 6.7
2017-Nov-17 11:59N 29°51' W 092°22'3 6.9
2017-Nov-17 11:30N 29°50' W 092°18'1 1.7
2017-Nov-17 11:00N 29°49' W 092°17'0 0.1
2017-Nov-17 10:30N 29°49' W 092°17'2 3.6
2017-Nov-17 10:00N 29°48' W 092°16'3 6.4
2017-Nov-17 09:30N 29°47' W 092°12'2 4.9
2017-Nov-17 09:00N 29°47' W 092°10'4 7.5
2017-Nov-17 08:30N 29°48' W 092°05'4 7.5
2017-Nov-17 08:00N 29°49' W 092°01'4 7.5
2017-Nov-17 07:30N 29°50' W 091°57'8 3.2
2017-Nov-17 04:59N 29°47' W 091°49'48 6.3
2017-Nov-16 21:23N 29°34' W 090°56'4 7.5
2017-Nov-16 20:53N 29°32' W 090°52'3 8.1
2017-Nov-16 20:30N 29°32' W 090°49'3 6.7
2017-Nov-16 20:00N 29°34' W 090°45'3 5.1
2017-Nov-16 19:30N 29°35' W 090°43'2 3.8
2017-Nov-16 19:00N 29°36' W 090°41'3 6.9
2017-Nov-16 18:30N 29°35' W 090°37'3 6.3
2017-Nov-16 18:00N 29°34' W 090°34'4 7.7
2017-Nov-16 17:30N 29°34' W 090°29'  

Dump ship's entire track history